sensor_id;sensor_type;location;lat;lon;timestamp;P1;durP1;ratioP1;P2;durP2;ratioP2
71878;SDS011;59755;43.834;4.364;2022-10-16T00:00:39;11.13;;;7.63;;
71878;SDS011;59755;43.834;4.364;2022-10-16T00:03:06;13.68;;;7.68;;
71878;SDS011;59755;43.834;4.364;2022-10-16T00:05:32;11.50;;;7.82;;
71878;SDS011;59755;43.834;4.364;2022-10-16T00:08:02;10.23;;;7.38;;
71878;SDS011;59755;43.834;4.364;2022-10-16T00:10:28;11.80;;;7.57;;
71878;SDS011;59755;43.834;4.364;2022-10-16T00:12:54;13.50;;;8.15;;
71878;SDS011;59755;43.834;4.364;2022-10-16T00:15:19;12.32;;;8.10;;
71878;SDS011;59755;43.834;4.364;2022-10-16T00:17:45;9.73;;;7.65;;
71878;SDS011;59755;43.834;4.364;2022-10-16T00:20:11;11.63;;;7.88;;
71878;SDS011;59755;43.834;4.364;2022-10-16T00:22:37;12.35;;;8.20;;
71878;SDS011;59755;43.834;4.364;2022-10-16T00:25:02;12.23;;;8.30;;
71878;SDS011;59755;43.834;4.364;2022-10-16T00:27:28;11.15;;;8.25;;
71878;SDS011;59755;43.834;4.364;2022-10-16T00:29:54;13.15;;;8.02;;
71878;SDS011;59755;43.834;4.364;2022-10-16T00:32:20;10.93;;;7.38;;
71878;SDS011;59755;43.834;4.364;2022-10-16T00:34:46;12.07;;;8.00;;
71878;SDS011;59755;43.834;4.364;2022-10-16T00:37:12;11.52;;;8.20;;
71878;SDS011;59755;43.834;4.364;2022-10-16T00:39:38;11.18;;;7.95;;
71878;SDS011;59755;43.834;4.364;2022-10-16T00:42:04;12.63;;;7.30;;
71878;SDS011;59755;43.834;4.364;2022-10-16T00:50:04;13.55;;;8.05;;
71878;SDS011;59755;43.834;4.364;2022-10-16T00:52:33;11.68;;;8.02;;
71878;SDS011;59755;43.834;4.364;2022-10-16T00:55:00;12.55;;;7.68;;
71878;SDS011;59755;43.834;4.364;2022-10-16T00:57:28;10.38;;;7.32;;
71878;SDS011;59755;43.834;4.364;2022-10-16T00:59:54;10.43;;;7.72;;
71878;SDS011;59755;43.834;4.364;2022-10-16T01:02:20;11.82;;;7.95;;
71878;SDS011;59755;43.834;4.364;2022-10-16T01:04:47;12.57;;;8.00;;
71878;SDS011;59755;43.834;4.364;2022-10-16T01:10:02;11.98;;;7.50;;
71878;SDS011;59755;43.834;4.364;2022-10-16T01:15:30;14.23;;;7.65;;
71878;SDS011;59755;43.834;4.364;2022-10-16T01:18:11;14.43;;;7.80;;
71878;SDS011;59755;43.834;4.364;2022-10-16T01:20:57;12.13;;;8.07;;
71878;SDS011;59755;43.834;4.364;2022-10-16T01:23:33;13.00;;;7.68;;
71878;SDS011;59755;43.834;4.364;2022-10-16T01:26:15;12.55;;;7.35;;
71878;SDS011;59755;43.834;4.364;2022-10-16T01:31:23;11.75;;;7.80;;
71878;SDS011;59755;43.834;4.364;2022-10-16T01:34:14;11.05;;;7.55;;
71878;SDS011;59755;43.834;4.364;2022-10-16T01:36:50;13.13;;;7.88;;
71878;SDS011;59755;43.834;4.364;2022-10-16T01:39:21;12.57;;;7.68;;
71878;SDS011;59755;43.834;4.364;2022-10-16T01:42:03;9.43;;;7.20;;
71878;SDS011;59755;43.834;4.364;2022-10-16T01:44:34;10.20;;;6.95;;
71878;SDS011;59755;43.834;4.364;2022-10-16T01:47:02;13.63;;;7.32;;
71878;SDS011;59755;43.834;4.364;2022-10-16T01:49:32;9.23;;;6.60;;
71878;SDS011;59755;43.834;4.364;2022-10-16T01:52:02;11.63;;;7.20;;
71878;SDS011;59755;43.834;4.364;2022-10-16T01:54:35;11.85;;;7.15;;
71878;SDS011;59755;43.834;4.364;2022-10-16T01:57:03;11.45;;;6.43;;
71878;SDS011;59755;43.834;4.364;2022-10-16T01:59:31;9.88;;;6.85;;
71878;SDS011;59755;43.834;4.364;2022-10-16T02:02:01;11.15;;;6.53;;
71878;SDS011;59755;43.834;4.364;2022-10-16T02:04:34;10.85;;;6.32;;
71878;SDS011;59755;43.834;4.364;2022-10-16T02:07:03;9.13;;;6.43;;
71878;SDS011;59755;43.834;4.364;2022-10-16T02:09:30;9.88;;;6.47;;
71878;SDS011;59755;43.834;4.364;2022-10-16T02:11:59;8.73;;;6.25;;
71878;SDS011;59755;43.834;4.364;2022-10-16T02:14:31;9.75;;;6.10;;
71878;SDS011;59755;43.834;4.364;2022-10-16T02:16:57;12.05;;;6.88;;
71878;SDS011;59755;43.834;4.364;2022-10-16T02:19:23;8.75;;;6.15;;
71878;SDS011;59755;43.834;4.364;2022-10-16T02:21:49;9.38;;;6.43;;
71878;SDS011;59755;43.834;4.364;2022-10-16T02:24:28;9.05;;;6.38;;
71878;SDS011;59755;43.834;4.364;2022-10-16T02:27:06;10.55;;;5.78;;
71878;SDS011;59755;43.834;4.364;2022-10-16T02:29:40;10.18;;;5.68;;
71878;SDS011;59755;43.834;4.364;2022-10-16T02:32:10;9.27;;;6.00;;
71878;SDS011;59755;43.834;4.364;2022-10-16T02:34:40;9.63;;;5.80;;
71878;SDS011;59755;43.834;4.364;2022-10-16T02:37:06;9.13;;;5.50;;
71878;SDS011;59755;43.834;4.364;2022-10-16T02:39:33;9.93;;;5.28;;
71878;SDS011;59755;43.834;4.364;2022-10-16T02:41:59;8.13;;;5.47;;
71878;SDS011;59755;43.834;4.364;2022-10-16T02:44:26;7.97;;;5.00;;
71878;SDS011;59755;43.834;4.364;2022-10-16T02:46:51;8.70;;;4.95;;
71878;SDS011;59755;43.834;4.364;2022-10-16T02:49:17;7.80;;;5.07;;
71878;SDS011;59755;43.834;4.364;2022-10-16T02:51:43;8.68;;;5.20;;
71878;SDS011;59755;43.834;4.364;2022-10-16T02:54:09;8.45;;;5.20;;
71878;SDS011;59755;43.834;4.364;2022-10-16T02:56:35;8.43;;;4.70;;
71878;SDS011;59755;43.834;4.364;2022-10-16T02:59:01;8.27;;;4.60;;
71878;SDS011;59755;43.834;4.364;2022-10-16T03:01:26;7.13;;;4.72;;
71878;SDS011;59755;43.834;4.364;2022-10-16T03:03:52;8.98;;;4.85;;
71878;SDS011;59755;43.834;4.364;2022-10-16T03:06:18;7.30;;;4.63;;
71878;SDS011;59755;43.834;4.364;2022-10-16T03:08:44;8.05;;;4.85;;
71878;SDS011;59755;43.834;4.364;2022-10-16T03:11:09;10.00;;;4.80;;
71878;SDS011;59755;43.834;4.364;2022-10-16T03:13:35;8.10;;;4.78;;
71878;SDS011;59755;43.834;4.364;2022-10-16T03:16:01;9.45;;;5.15;;
71878;SDS011;59755;43.834;4.364;2022-10-16T03:18:26;7.20;;;4.68;;
71878;SDS011;59755;43.834;4.364;2022-10-16T03:20:52;7.97;;;4.97;;
71878;SDS011;59755;43.834;4.364;2022-10-16T03:23:18;7.47;;;4.50;;
71878;SDS011;59755;43.834;4.364;2022-10-16T03:25:43;8.52;;;5.03;;
71878;SDS011;59755;43.834;4.364;2022-10-16T03:28:09;7.63;;;4.80;;
71878;SDS011;59755;43.834;4.364;2022-10-16T03:30:35;8.05;;;5.13;;
71878;SDS011;59755;43.834;4.364;2022-10-16T03:33:01;7.68;;;4.90;;
71878;SDS011;59755;43.834;4.364;2022-10-16T03:35:26;8.18;;;5.30;;
71878;SDS011;59755;43.834;4.364;2022-10-16T03:37:52;10.02;;;5.25;;
71878;SDS011;59755;43.834;4.364;2022-10-16T03:40:18;9.20;;;4.82;;
71878;SDS011;59755;43.834;4.364;2022-10-16T03:42:44;8.55;;;5.30;;
71878;SDS011;59755;43.834;4.364;2022-10-16T03:45:10;11.63;;;5.32;;
71878;SDS011;59755;43.834;4.364;2022-10-16T03:47:36;8.52;;;5.15;;
71878;SDS011;59755;43.834;4.364;2022-10-16T03:50:03;13.00;;;5.10;;
71878;SDS011;59755;43.834;4.364;2022-10-16T03:52:29;8.35;;;5.15;;
71878;SDS011;59755;43.834;4.364;2022-10-16T03:54:55;8.27;;;4.88;;
71878;SDS011;59755;43.834;4.364;2022-10-16T03:57:21;8.30;;;4.70;;
71878;SDS011;59755;43.834;4.364;2022-10-16T03:59:46;8.65;;;5.20;;
71878;SDS011;59755;43.834;4.364;2022-10-16T04:02:12;8.25;;;4.72;;
71878;SDS011;59755;43.834;4.364;2022-10-16T04:04:38;9.40;;;4.70;;
71878;SDS011;59755;43.834;4.364;2022-10-16T04:07:04;7.72;;;4.68;;
71878;SDS011;59755;43.834;4.364;2022-10-16T04:09:30;9.73;;;5.30;;
71878;SDS011;59755;43.834;4.364;2022-10-16T04:11:55;8.52;;;5.07;;
71878;SDS011;59755;43.834;4.364;2022-10-16T04:14:21;7.43;;;4.65;;
71878;SDS011;59755;43.834;4.364;2022-10-16T04:16:47;9.63;;;4.97;;
71878;SDS011;59755;43.834;4.364;2022-10-16T04:19:12;12.07;;;5.80;;
71878;SDS011;59755;43.834;4.364;2022-10-16T04:21:38;8.48;;;5.55;;
71878;SDS011;59755;43.834;4.364;2022-10-16T04:24:04;9.43;;;5.15;;
71878;SDS011;59755;43.834;4.364;2022-10-16T04:26:30;8.55;;;4.95;;
71878;SDS011;59755;43.834;4.364;2022-10-16T04:28:56;8.82;;;4.80;;
71878;SDS011;59755;43.834;4.364;2022-10-16T04:31:21;8.63;;;5.47;;
71878;SDS011;59755;43.834;4.364;2022-10-16T04:33:47;8.82;;;5.47;;
71878;SDS011;59755;43.834;4.364;2022-10-16T04:36:13;8.95;;;4.85;;
71878;SDS011;59755;43.834;4.364;2022-10-16T04:38:39;8.32;;;4.80;;
71878;SDS011;59755;43.834;4.364;2022-10-16T04:41:05;7.72;;;4.90;;
71878;SDS011;59755;43.834;4.364;2022-10-16T04:43:32;9.57;;;5.32;;
71878;SDS011;59755;43.834;4.364;2022-10-16T04:45:58;9.35;;;4.90;;
71878;SDS011;59755;43.834;4.364;2022-10-16T04:48:24;7.47;;;4.90;;
71878;SDS011;59755;43.834;4.364;2022-10-16T04:50:50;8.52;;;5.07;;
71878;SDS011;59755;43.834;4.364;2022-10-16T04:53:16;8.90;;;4.88;;
71878;SDS011;59755;43.834;4.364;2022-10-16T04:55:42;8.60;;;5.03;;
71878;SDS011;59755;43.834;4.364;2022-10-16T04:58:08;7.88;;;4.88;;
71878;SDS011;59755;43.834;4.364;2022-10-16T05:00:34;9.73;;;4.90;;
71878;SDS011;59755;43.834;4.364;2022-10-16T05:03:00;9.18;;;4.90;;
71878;SDS011;59755;43.834;4.364;2022-10-16T05:05:26;8.32;;;5.10;;
71878;SDS011;59755;43.834;4.364;2022-10-16T05:07:53;7.78;;;4.50;;
71878;SDS011;59755;43.834;4.364;2022-10-16T05:10:19;9.52;;;5.00;;
71878;SDS011;59755;43.834;4.364;2022-10-16T05:12:45;9.63;;;4.72;;
71878;SDS011;59755;43.834;4.364;2022-10-16T05:15:11;7.75;;;4.68;;
71878;SDS011;59755;43.834;4.364;2022-10-16T05:17:37;7.32;;;4.80;;
71878;SDS011;59755;43.834;4.364;2022-10-16T05:20:03;7.38;;;4.80;;
71878;SDS011;59755;43.834;4.364;2022-10-16T05:22:29;8.73;;;5.13;;
71878;SDS011;59755;43.834;4.364;2022-10-16T05:24:55;10.77;;;5.20;;
71878;SDS011;59755;43.834;4.364;2022-10-16T05:27:21;7.93;;;4.93;;
71878;SDS011;59755;43.834;4.364;2022-10-16T05:29:47;10.32;;;5.45;;
71878;SDS011;59755;43.834;4.364;2022-10-16T05:32:14;8.68;;;5.03;;
71878;SDS011;59755;43.834;4.364;2022-10-16T05:34:40;7.95;;;4.82;;
71878;SDS011;59755;43.834;4.364;2022-10-16T05:37:06;7.70;;;4.70;;
71878;SDS011;59755;43.834;4.364;2022-10-16T05:39:32;7.70;;;5.03;;
71878;SDS011;59755;43.834;4.364;2022-10-16T05:42:01;9.00;;;4.80;;
71878;SDS011;59755;43.834;4.364;2022-10-16T05:44:27;9.20;;;4.82;;
71878;SDS011;59755;43.834;4.364;2022-10-16T05:46:53;9.43;;;4.90;;
71878;SDS011;59755;43.834;4.364;2022-10-16T05:49:19;7.57;;;4.88;;
71878;SDS011;59755;43.834;4.364;2022-10-16T05:51:44;8.27;;;4.70;;
71878;SDS011;59755;43.834;4.364;2022-10-16T05:54:10;8.50;;;4.78;;
71878;SDS011;59755;43.834;4.364;2022-10-16T05:56:36;9.43;;;4.78;;
71878;SDS011;59755;43.834;4.364;2022-10-16T05:59:02;10.85;;;5.43;;
71878;SDS011;59755;43.834;4.364;2022-10-16T06:01:29;8.13;;;4.88;;
71878;SDS011;59755;43.834;4.364;2022-10-16T06:03:56;7.97;;;4.55;;
71878;SDS011;59755;43.834;4.364;2022-10-16T06:06:23;8.93;;;4.57;;
71878;SDS011;59755;43.834;4.364;2022-10-16T06:08:51;9.52;;;4.93;;
71878;SDS011;59755;43.834;4.364;2022-10-16T06:11:18;7.80;;;4.68;;
71878;SDS011;59755;43.834;4.364;2022-10-16T06:13:49;8.48;;;4.63;;
71878;SDS011;59755;43.834;4.364;2022-10-16T06:16:16;10.25;;;5.10;;
71878;SDS011;59755;43.834;4.364;2022-10-16T06:18:42;8.55;;;5.47;;
71878;SDS011;59755;43.834;4.364;2022-10-16T06:21:09;8.93;;;4.85;;
71878;SDS011;59755;43.834;4.364;2022-10-16T06:23:41;8.50;;;5.25;;
71878;SDS011;59755;43.834;4.364;2022-10-16T06:26:07;9.13;;;5.18;;
71878;SDS011;59755;43.834;4.364;2022-10-16T06:28:34;7.35;;;4.43;;
71878;SDS011;59755;43.834;4.364;2022-10-16T06:31:00;8.32;;;4.60;;
71878;SDS011;59755;43.834;4.364;2022-10-16T06:33:27;7.70;;;4.15;;
71878;SDS011;59755;43.834;4.364;2022-10-16T06:35:53;7.38;;;4.60;;
71878;SDS011;59755;43.834;4.364;2022-10-16T06:38:19;7.80;;;4.50;;
71878;SDS011;59755;43.834;4.364;2022-10-16T06:40:44;7.40;;;4.30;;
71878;SDS011;59755;43.834;4.364;2022-10-16T06:43:10;8.63;;;4.70;;
71878;SDS011;59755;43.834;4.364;2022-10-16T06:45:36;7.28;;;4.50;;
71878;SDS011;59755;43.834;4.364;2022-10-16T06:48:02;8.07;;;4.80;;
71878;SDS011;59755;43.834;4.364;2022-10-16T06:50:27;9.38;;;4.82;;
71878;SDS011;59755;43.834;4.364;2022-10-16T06:52:53;11.18;;;5.55;;
71878;SDS011;59755;43.834;4.364;2022-10-16T06:55:19;9.95;;;5.30;;
71878;SDS011;59755;43.834;4.364;2022-10-16T06:57:46;9.05;;;4.63;;
71878;SDS011;59755;43.834;4.364;2022-10-16T07:00:13;7.70;;;4.30;;
71878;SDS011;59755;43.834;4.364;2022-10-16T07:02:39;8.75;;;4.28;;
71878;SDS011;59755;43.834;4.364;2022-10-16T07:05:05;8.02;;;4.55;;
71878;SDS011;59755;43.834;4.364;2022-10-16T07:07:31;7.57;;;4.20;;
71878;SDS011;59755;43.834;4.364;2022-10-16T07:09:56;8.75;;;4.38;;
71878;SDS011;59755;43.834;4.364;2022-10-16T07:12:22;8.43;;;4.53;;
71878;SDS011;59755;43.834;4.364;2022-10-16T07:14:48;7.60;;;4.15;;
71878;SDS011;59755;43.834;4.364;2022-10-16T07:17:17;8.65;;;4.88;;
71878;SDS011;59755;43.834;4.364;2022-10-16T07:19:42;8.35;;;4.68;;
71878;SDS011;59755;43.834;4.364;2022-10-16T07:22:08;9.93;;;5.20;;
71878;SDS011;59755;43.834;4.364;2022-10-16T07:24:34;9.23;;;4.72;;
71878;SDS011;59755;43.834;4.364;2022-10-16T07:27:00;9.70;;;4.90;;
71878;SDS011;59755;43.834;4.364;2022-10-16T07:29:25;7.50;;;4.10;;
71878;SDS011;59755;43.834;4.364;2022-10-16T07:31:51;9.77;;;4.55;;
71878;SDS011;59755;43.834;4.364;2022-10-16T07:34:17;9.20;;;5.00;;
71878;SDS011;59755;43.834;4.364;2022-10-16T07:36:44;9.32;;;4.72;;
71878;SDS011;59755;43.834;4.364;2022-10-16T07:41:41;7.68;;;4.55;;
71878;SDS011;59755;43.834;4.364;2022-10-16T07:44:07;6.53;;;4.22;;
71878;SDS011;59755;43.834;4.364;2022-10-16T07:46:33;7.78;;;4.75;;
71878;SDS011;59755;43.834;4.364;2022-10-16T07:49:01;8.18;;;4.53;;
71878;SDS011;59755;43.834;4.364;2022-10-16T07:51:27;7.85;;;4.25;;
71878;SDS011;59755;43.834;4.364;2022-10-16T07:53:53;8.30;;;4.57;;
71878;SDS011;59755;43.834;4.364;2022-10-16T07:56:19;9.18;;;4.80;;
71878;SDS011;59755;43.834;4.364;2022-10-16T07:58:45;8.93;;;4.40;;
71878;SDS011;59755;43.834;4.364;2022-10-16T08:01:13;7.90;;;4.40;;
71878;SDS011;59755;43.834;4.364;2022-10-16T08:03:43;8.73;;;4.65;;
71878;SDS011;59755;43.834;4.364;2022-10-16T08:06:10;10.60;;;5.50;;
71878;SDS011;59755;43.834;4.364;2022-10-16T08:08:36;9.20;;;4.82;;
71878;SDS011;59755;43.834;4.364;2022-10-16T08:11:02;10.35;;;5.70;;
71878;SDS011;59755;43.834;4.364;2022-10-16T08:13:31;9.95;;;5.40;;
71878;SDS011;59755;43.834;4.364;2022-10-16T08:15:57;9.00;;;4.80;;
71878;SDS011;59755;43.834;4.364;2022-10-16T08:18:23;8.43;;;4.88;;
71878;SDS011;59755;43.834;4.364;2022-10-16T08:20:54;10.90;;;4.88;;
71878;SDS011;59755;43.834;4.364;2022-10-16T08:23:24;9.65;;;5.30;;
71878;SDS011;59755;43.834;4.364;2022-10-16T08:25:51;8.02;;;4.63;;
71878;SDS011;59755;43.834;4.364;2022-10-16T08:28:18;9.32;;;5.63;;
71878;SDS011;59755;43.834;4.364;2022-10-16T08:30:44;8.88;;;5.68;;
71878;SDS011;59755;43.834;4.364;2022-10-16T08:33:10;8.38;;;4.95;;
71878;SDS011;59755;43.834;4.364;2022-10-16T08:35:36;9.15;;;5.25;;
71878;SDS011;59755;43.834;4.364;2022-10-16T08:38:05;9.05;;;5.25;;
71878;SDS011;59755;43.834;4.364;2022-10-16T08:40:32;8.30;;;5.25;;
71878;SDS011;59755;43.834;4.364;2022-10-16T08:48:27;8.25;;;5.32;;
71878;SDS011;59755;43.834;4.364;2022-10-16T08:50:54;8.05;;;4.90;;
71878;SDS011;59755;43.834;4.364;2022-10-16T08:53:23;10.13;;;5.68;;
71878;SDS011;59755;43.834;4.364;2022-10-16T08:56:11;12.45;;;6.30;;
71878;SDS011;59755;43.834;4.364;2022-10-16T08:58:37;8.88;;;5.65;;
71878;SDS011;59755;43.834;4.364;2022-10-16T09:01:03;10.75;;;5.88;;
71878;SDS011;59755;43.834;4.364;2022-10-16T09:03:43;11.15;;;5.57;;
71878;SDS011;59755;43.834;4.364;2022-10-16T09:12:16;9.77;;;5.32;;
71878;SDS011;59755;43.834;4.364;2022-10-16T09:22:55;9.38;;;5.80;;
71878;SDS011;59755;43.834;4.364;2022-10-16T09:25:46;8.55;;;5.35;;
71878;SDS011;59755;43.834;4.364;2022-10-16T09:28:14;10.25;;;5.25;;
71878;SDS011;59755;43.834;4.364;2022-10-16T09:30:41;9.40;;;5.50;;
71878;SDS011;59755;43.834;4.364;2022-10-16T09:33:07;10.15;;;5.55;;
71878;SDS011;59755;43.834;4.364;2022-10-16T09:38:03;9.57;;;5.65;;
71878;SDS011;59755;43.834;4.364;2022-10-16T09:40:30;8.13;;;5.25;;
71878;SDS011;59755;43.834;4.364;2022-10-16T09:45:31;7.35;;;5.50;;
71878;SDS011;59755;43.834;4.364;2022-10-16T09:47:57;8.93;;;5.70;;
71878;SDS011;59755;43.834;4.364;2022-10-16T09:50:26;9.50;;;5.50;;
71878;SDS011;59755;43.834;4.364;2022-10-16T09:53:03;8.82;;;5.72;;
71878;SDS011;59755;43.834;4.364;2022-10-16T09:55:30;9.93;;;6.05;;
71878;SDS011;59755;43.834;4.364;2022-10-16T09:57:56;8.85;;;5.70;;
71878;SDS011;59755;43.834;4.364;2022-10-16T10:00:22;8.73;;;5.50;;
71878;SDS011;59755;43.834;4.364;2022-10-16T10:02:49;11.75;;;6.20;;
71878;SDS011;59755;43.834;4.364;2022-10-16T10:05:20;10.32;;;5.47;;
71878;SDS011;59755;43.834;4.364;2022-10-16T10:07:54;8.30;;;5.75;;
71878;SDS011;59755;43.834;4.364;2022-10-16T10:10:23;8.13;;;5.80;;
71878;SDS011;59755;43.834;4.364;2022-10-16T10:12:53;9.68;;;5.63;;
71878;SDS011;59755;43.834;4.364;2022-10-16T10:15:20;8.60;;;5.60;;
71878;SDS011;59755;43.834;4.364;2022-10-16T10:17:52;9.80;;;6.00;;
71878;SDS011;59755;43.834;4.364;2022-10-16T10:20:35;9.95;;;6.32;;
71878;SDS011;59755;43.834;4.364;2022-10-16T10:23:23;8.23;;;5.15;;
71878;SDS011;59755;43.834;4.364;2022-10-16T10:31:30;6.63;;;4.45;;
71878;SDS011;59755;43.834;4.364;2022-10-16T10:36:41;8.75;;;5.18;;
71878;SDS011;59755;43.834;4.364;2022-10-16T10:56:14;7.55;;;5.18;;
71878;SDS011;59755;43.834;4.364;2022-10-16T11:01:25;8.45;;;4.95;;
71878;SDS011;59755;43.834;4.364;2022-10-16T11:06:52;8.43;;;4.90;;
71878;SDS011;59755;43.834;4.364;2022-10-16T11:09:31;9.85;;;5.30;;
71878;SDS011;59755;43.834;4.364;2022-10-16T11:12:13;10.00;;;5.13;;
71878;SDS011;59755;43.834;4.364;2022-10-16T11:14:48;10.20;;;5.28;;
71878;SDS011;59755;43.834;4.364;2022-10-16T11:17:34;9.57;;;4.78;;
71878;SDS011;59755;43.834;4.364;2022-10-16T11:20:19;7.88;;;5.13;;
71878;SDS011;59755;43.834;4.364;2022-10-16T11:22:56;8.52;;;5.20;;
71878;SDS011;59755;43.834;4.364;2022-10-16T11:25:32;8.32;;;4.80;;
71878;SDS011;59755;43.834;4.364;2022-10-16T11:28:14;9.07;;;5.13;;
71878;SDS011;59755;43.834;4.364;2022-10-16T11:34:09;8.95;;;5.25;;
71878;SDS011;59755;43.834;4.364;2022-10-16T11:36:55;8.57;;;5.47;;
71878;SDS011;59755;43.834;4.364;2022-10-16T11:39:27;8.95;;;5.00;;
71878;SDS011;59755;43.834;4.364;2022-10-16T11:42:03;7.95;;;5.30;;
71878;SDS011;59755;43.834;4.364;2022-10-16T11:49:33;8.52;;;5.20;;
71878;SDS011;59755;43.834;4.364;2022-10-16T11:52:17;6.95;;;4.60;;
71878;SDS011;59755;43.834;4.364;2022-10-16T11:57:31;7.75;;;4.25;;
71878;SDS011;59755;43.834;4.364;2022-10-16T12:07:48;7.65;;;4.03;;
71878;SDS011;59755;43.834;4.364;2022-10-16T12:10:36;10.65;;;4.13;;
71878;SDS011;59755;43.834;4.364;2022-10-16T12:13:04;6.80;;;4.15;;
71878;SDS011;59755;43.834;4.364;2022-10-16T12:15:50;8.35;;;4.13;;
71878;SDS011;59755;43.834;4.364;2022-10-16T12:18:20;9.93;;;4.13;;
71878;SDS011;59755;43.834;4.364;2022-10-16T12:20:54;8.15;;;4.07;;
71878;SDS011;59755;43.834;4.364;2022-10-16T12:23:23;9.73;;;4.72;;
71878;SDS011;59755;43.834;4.364;2022-10-16T12:25:57;9.60;;;3.85;;
71878;SDS011;59755;43.834;4.364;2022-10-16T12:28:29;7.95;;;4.35;;
71878;SDS011;59755;43.834;4.364;2022-10-16T12:33:27;8.65;;;4.22;;
71878;SDS011;59755;43.834;4.364;2022-10-16T12:35:58;6.65;;;3.92;;
71878;SDS011;59755;43.834;4.364;2022-10-16T12:38:30;7.68;;;3.72;;
71878;SDS011;59755;43.834;4.364;2022-10-16T12:41:25;8.70;;;3.65;;
71878;SDS011;59755;43.834;4.364;2022-10-16T12:43:59;7.05;;;3.42;;
71878;SDS011;59755;43.834;4.364;2022-10-16T12:46:37;8.32;;;3.72;;
71878;SDS011;59755;43.834;4.364;2022-10-16T12:51:39;7.18;;;3.60;;
71878;SDS011;59755;43.834;4.364;2022-10-16T12:54:13;6.78;;;3.63;;
71878;SDS011;59755;43.834;4.364;2022-10-16T13:07:43;7.85;;;4.30;;
71878;SDS011;59755;43.834;4.364;2022-10-16T13:10:30;7.30;;;4.03;;
71878;SDS011;59755;43.834;4.364;2022-10-16T13:13:14;7.32;;;3.97;;
71878;SDS011;59755;43.834;4.364;2022-10-16T13:29:10;7.82;;;3.70;;
71878;SDS011;59755;43.834;4.364;2022-10-16T13:31:38;8.50;;;4.53;;
71878;SDS011;59755;43.834;4.364;2022-10-16T13:34:05;7.85;;;3.50;;
71878;SDS011;59755;43.834;4.364;2022-10-16T13:36:44;8.30;;;3.90;;
71878;SDS011;59755;43.834;4.364;2022-10-16T13:41:39;8.82;;;4.22;;
71878;SDS011;59755;43.834;4.364;2022-10-16T13:44:05;6.57;;;4.00;;
71878;SDS011;59755;43.834;4.364;2022-10-16T13:46:41;6.90;;;3.80;;
71878;SDS011;59755;43.834;4.364;2022-10-16T13:49:25;7.00;;;3.35;;
71878;SDS011;59755;43.834;4.364;2022-10-16T13:51:58;7.68;;;3.65;;
71878;SDS011;59755;43.834;4.364;2022-10-16T13:54:25;8.80;;;3.85;;
71878;SDS011;59755;43.834;4.364;2022-10-16T13:56:53;9.70;;;3.78;;
71878;SDS011;59755;43.834;4.364;2022-10-16T13:59:35;7.78;;;4.00;;
71878;SDS011;59755;43.834;4.364;2022-10-16T14:02:38;8.02;;;3.50;;
71878;SDS011;59755;43.834;4.364;2022-10-16T14:05:00;8.82;;;4.13;;
71878;SDS011;59755;43.834;4.364;2022-10-16T14:07:28;7.47;;;3.97;;
71878;SDS011;59755;43.834;4.364;2022-10-16T14:10:40;7.28;;;4.40;;
71878;SDS011;59755;43.834;4.364;2022-10-16T14:12:59;9.10;;;3.85;;
71878;SDS011;59755;43.834;4.364;2022-10-16T14:15:25;8.32;;;4.28;;
71878;SDS011;59755;43.834;4.364;2022-10-16T14:17:51;7.28;;;3.58;;
71878;SDS011;59755;43.834;4.364;2022-10-16T14:20:18;7.57;;;3.63;;
71878;SDS011;59755;43.834;4.364;2022-10-16T14:22:45;6.72;;;4.00;;
71878;SDS011;59755;43.834;4.364;2022-10-16T14:30:24;7.10;;;4.03;;
71878;SDS011;59755;43.834;4.364;2022-10-16T14:32:54;7.30;;;3.90;;
71878;SDS011;59755;43.834;4.364;2022-10-16T14:35:23;7.85;;;3.90;;
71878;SDS011;59755;43.834;4.364;2022-10-16T14:37:56;9.45;;;4.10;;
71878;SDS011;59755;43.834;4.364;2022-10-16T14:40:24;7.80;;;3.67;;
71878;SDS011;59755;43.834;4.364;2022-10-16T14:42:58;9.18;;;3.70;;
71878;SDS011;59755;43.834;4.364;2022-10-16T14:45:29;8.07;;;4.38;;
71878;SDS011;59755;43.834;4.364;2022-10-16T14:47:58;8.18;;;4.13;;
71878;SDS011;59755;43.834;4.364;2022-10-16T14:50:31;8.75;;;3.80;;
71878;SDS011;59755;43.834;4.364;2022-10-16T14:52:57;7.20;;;3.85;;
71878;SDS011;59755;43.834;4.364;2022-10-16T14:55:23;7.78;;;3.97;;
71878;SDS011;59755;43.834;4.364;2022-10-16T14:57:50;8.73;;;3.75;;
71878;SDS011;59755;43.834;4.364;2022-10-16T15:00:23;10.82;;;4.03;;
71878;SDS011;59755;43.834;4.364;2022-10-16T15:02:49;6.50;;;3.63;;
71878;SDS011;59755;43.834;4.364;2022-10-16T15:05:22;7.13;;;4.07;;
71878;SDS011;59755;43.834;4.364;2022-10-16T15:07:51;8.57;;;4.22;;
71878;SDS011;59755;43.834;4.364;2022-10-16T15:10:18;6.07;;;3.63;;
71878;SDS011;59755;43.834;4.364;2022-10-16T15:12:46;9.27;;;3.90;;
71878;SDS011;59755;43.834;4.364;2022-10-16T15:15:15;7.18;;;4.13;;
71878;SDS011;59755;43.834;4.364;2022-10-16T15:17:46;6.78;;;3.95;;
71878;SDS011;59755;43.834;4.364;2022-10-16T15:20:13;7.60;;;3.97;;
71878;SDS011;59755;43.834;4.364;2022-10-16T15:22:38;8.48;;;4.00;;
71878;SDS011;59755;43.834;4.364;2022-10-16T15:25:19;10.60;;;4.15;;
71878;SDS011;59755;43.834;4.364;2022-10-16T15:27:57;8.52;;;4.47;;
71878;SDS011;59755;43.834;4.364;2022-10-16T15:30:23;11.40;;;4.68;;
71878;SDS011;59755;43.834;4.364;2022-10-16T15:32:50;9.30;;;4.88;;
71878;SDS011;59755;43.834;4.364;2022-10-16T15:35:15;9.63;;;4.40;;
71878;SDS011;59755;43.834;4.364;2022-10-16T15:37:41;10.00;;;4.95;;
71878;SDS011;59755;43.834;4.364;2022-10-16T15:40:08;9.23;;;4.93;;
71878;SDS011;59755;43.834;4.364;2022-10-16T15:42:35;8.07;;;4.30;;
71878;SDS011;59755;43.834;4.364;2022-10-16T15:45:01;9.52;;;4.82;;
71878;SDS011;59755;43.834;4.364;2022-10-16T15:47:28;8.65;;;4.22;;
71878;SDS011;59755;43.834;4.364;2022-10-16T15:49:53;9.68;;;4.57;;
71878;SDS011;59755;43.834;4.364;2022-10-16T15:52:19;10.00;;;4.75;;
71878;SDS011;59755;43.834;4.364;2022-10-16T15:54:45;11.55;;;4.78;;
71878;SDS011;59755;43.834;4.364;2022-10-16T15:57:10;11.02;;;4.38;;
71878;SDS011;59755;43.834;4.364;2022-10-16T15:59:36;11.65;;;5.10;;
71878;SDS011;59755;43.834;4.364;2022-10-16T16:02:02;8.55;;;4.70;;
71878;SDS011;59755;43.834;4.364;2022-10-16T16:04:31;9.25;;;4.80;;
71878;SDS011;59755;43.834;4.364;2022-10-16T16:06:57;9.20;;;4.75;;
71878;SDS011;59755;43.834;4.364;2022-10-16T16:09:22;10.98;;;4.65;;
71878;SDS011;59755;43.834;4.364;2022-10-16T16:11:48;8.10;;;4.60;;
71878;SDS011;59755;43.834;4.364;2022-10-16T16:14:16;9.73;;;4.72;;
71878;SDS011;59755;43.834;4.364;2022-10-16T16:16:42;8.18;;;4.60;;
71878;SDS011;59755;43.834;4.364;2022-10-16T16:19:08;7.95;;;4.82;;
71878;SDS011;59755;43.834;4.364;2022-10-16T16:21:34;8.50;;;4.63;;
71878;SDS011;59755;43.834;4.364;2022-10-16T16:24:00;9.70;;;4.85;;
71878;SDS011;59755;43.834;4.364;2022-10-16T16:26:29;11.38;;;4.38;;
71878;SDS011;59755;43.834;4.364;2022-10-16T16:29:01;8.13;;;4.50;;
71878;SDS011;59755;43.834;4.364;2022-10-16T16:31:28;9.40;;;4.70;;
71878;SDS011;59755;43.834;4.364;2022-10-16T16:33:55;11.00;;;4.68;;
71878;SDS011;59755;43.834;4.364;2022-10-16T16:36:22;8.85;;;4.45;;
71878;SDS011;59755;43.834;4.364;2022-10-16T16:38:49;10.13;;;4.53;;
71878;SDS011;59755;43.834;4.364;2022-10-16T16:41:16;8.77;;;4.38;;
71878;SDS011;59755;43.834;4.364;2022-10-16T16:43:47;10.05;;;4.38;;
71878;SDS011;59755;43.834;4.364;2022-10-16T16:46:13;8.35;;;4.75;;
71878;SDS011;59755;43.834;4.364;2022-10-16T16:48:40;10.10;;;4.80;;
71878;SDS011;59755;43.834;4.364;2022-10-16T16:51:07;8.55;;;4.90;;
71878;SDS011;59755;43.834;4.364;2022-10-16T16:53:34;7.13;;;4.43;;
71878;SDS011;59755;43.834;4.364;2022-10-16T16:56:01;7.38;;;4.30;;
71878;SDS011;59755;43.834;4.364;2022-10-16T16:58:27;9.23;;;4.47;;
71878;SDS011;59755;43.834;4.364;2022-10-16T17:00:53;9.13;;;4.72;;
71878;SDS011;59755;43.834;4.364;2022-10-16T17:03:19;10.27;;;4.90;;